Time;durP1;ratioP1;P1;durP2;ratioP2;P2;SDS_P1;SDS_P2;PMS_P1;PMS_P2;Temp;Humidity;BMP_temperature;BMP_pressure;BME280_temperature;BME280_humidity;BME280_pressure;Samples;Min_cycle;Max_cycle;Signal;HPM_P1;HPM_P2
2021/08/14 00:01:43;;;;;;;5.40;3.63;;;;;;;16.49;48.76;101783.53;7974050;28;20037;-64
2021/08/14 00:05:33;;;;;;;5.25;3.50;;;;;;;16.45;48.81;101771.47;7972759;28;20041;-64
2021/08/14 00:09:24;;;;;;;6.30;3.85;;;;;;;16.41;48.93;101772.66;7974454;28;20548;-65
2021/08/14 00:13:16;;;;;;;9.85;4.03;;;;;;;16.39;49.07;101779.91;7973782;28;20038;-64
2021/08/14 00:17:06;;;;;;;6.55;3.70;;;;;;;16.35;49.14;101767.00;7973833;28;20048;-65
2021/08/14 00:20:57;;;;;;;5.68;3.65;;;;;;;16.31;49.11;101769.03;7974258;28;20910;-64
2021/08/14 00:24:47;;;;;;;5.45;3.75;;;;;;;16.29;49.15;101767.44;7973695;28;20033;-64
2021/08/14 00:28:40;;;;;;;6.80;3.53;;;;;;;16.24;49.21;101762.53;7973736;28;20043;-64
2021/08/14 00:32:31;;;;;;;7.43;3.83;;;;;;;16.21;49.35;101768.03;7973447;28;20040;-64
2021/08/14 00:36:22;;;;;;;5.65;3.80;;;;;;;16.17;49.40;101775.38;7970744;28;20025;-64
2021/08/14 00:40:12;;;;;;;7.43;3.92;;;;;;;16.14;49.45;101777.41;7973421;28;20099;-64
2021/08/14 00:44:04;;;;;;;4.90;3.45;;;;;;;16.13;49.52;101775.72;7971063;28;20037;-65
2021/08/14 00:47:55;;;;;;;8.85;2.97;;;;;;;16.09;49.57;101768.94;7973698;28;20041;-65
2021/08/14 00:51:45;;;;;;;5.80;3.25;;;;;;;15.92;49.60;101730.44;7974108;28;20033;-65
2021/08/14 00:55:36;;;;;;;5.32;3.50;;;;;;;16.01;49.67;101752.75;7974204;28;20179;-65
2021/08/14 00:59:30;;;;;;;7.30;4.28;;;;;;;15.95;49.67;101746.13;7973834;28;20033;-65
2021/08/14 01:03:20;;;;;;;7.47;4.25;;;;;;;15.93;49.81;101748.03;7973269;28;20041;-65
2021/08/14 01:07:11;;;;;;;8.95;3.85;;;;;;;15.90;49.89;101742.97;7975135;28;20666;-65
2021/08/14 01:11:02;;;;;;;6.15;3.45;;;;;;;15.89;50.10;101737.78;7977846;28;20037;-65
2021/08/14 01:14:52;;;;;;;5.82;3.40;;;;;;;15.87;50.49;101745.00;7978444;28;20116;-65
2021/08/14 01:18:47;;;;;;;9.38;4.13;;;;;;;15.85;50.36;101746.91;7978809;28;20552;-65
2021/08/14 01:22:38;;;;;;;6.57;3.78;;;;;;;15.83;50.41;101752.31;7978935;28;20029;-65
2021/08/14 01:26:30;;;;;;;6.57;3.83;;;;;;;15.80;50.27;101746.41;7978904;28;20041;-65
2021/08/14 01:30:21;;;;;;;6.70;3.45;;;;;;;15.78;50.44;101743.03;7978638;28;20033;-65
2021/08/14 01:34:12;;;;;;;9.57;3.63;;;;;;;15.76;50.30;101745.78;7978238;28;20042;-65
2021/08/14 01:38:02;;;;;;;5.80;3.88;;;;;;;15.71;50.47;101738.19;7977661;28;20033;-65
2021/08/14 01:41:57;;;;;;;11.63;4.00;;;;;;;15.69;50.47;101737.47;7978034;28;20055;-65
2021/08/14 01:45:49;;;;;;;8.00;3.65;;;;;;;15.66;50.53;101734.22;7977861;28;20037;-64
2021/08/14 01:49:39;;;;;;;9.20;3.78;;;;;;;15.63;50.55;101729.13;7977632;28;20091;-64
2021/08/14 01:53:30;;;;;;;10.32;3.83;;;;;;;15.59;50.58;101722.34;7977746;28;20033;-64
2021/08/14 01:57:25;;;;;;;10.88;3.90;;;;;;;15.56;50.50;101719.94;7970354;28;20029;-64
2021/08/14 02:01:17;;;;;;;8.85;4.03;;;;;;;15.52;50.60;101715.81;7977719;28;20029;-65
2021/08/14 02:05:08;;;;;;;8.75;4.13;;;;;;;15.48;50.78;101715.22;7977045;28;20025;-64
2021/08/14 02:08:58;;;;;;;10.48;3.67;;;;;;;15.45;50.74;101725.19;7977589;28;20033;-65
2021/08/14 02:12:49;;;;;;;7.18;3.45;;;;;;;15.41;50.80;101716.63;7976157;28;20038;-64
2021/08/14 02:16:39;;;;;;;4.88;3.25;;;;;;;15.37;50.76;101719.59;7976914;28;20091;-64
2021/08/14 02:20:30;;;;;;;7.80;3.20;;;;;;;15.35;51.01;101717.06;7976978;28;20055;-64
2021/08/14 02:24:21;;;;;;;7.18;3.22;;;;;;;15.28;50.89;101710.50;7976930;28;20026;-64
2021/08/14 02:28:11;;;;;;;6.07;3.35;;;;;;;15.29;50.90;101722.81;7976551;28;20071;-64
2021/08/14 02:32:03;;;;;;;4.75;3.00;;;;;;;15.25;51.03;101719.50;7976803;28;20075;-64
2021/08/14 02:35:53;;;;;;;6.80;3.05;;;;;;;15.18;51.01;101710.31;7976308;28;20033;-64
2021/08/14 02:39:44;;;;;;;6.13;3.33;;;;;;;15.14;51.06;101705.34;7976564;28;20041;-64
2021/08/14 02:43:35;;;;;;;7.50;4.00;;;;;;;15.16;51.17;101716.69;7976002;28;20041;-64
2021/08/14 02:47:26;;;;;;;6.25;3.17;;;;;;;15.13;51.21;101719.53;7976293;28;20490;-64
2021/08/14 02:51:16;;;;;;;7.10;3.90;;;;;;;15.10;51.12;101717.97;7975049;28;20041;-64
2021/08/14 02:55:07;;;;;;;7.22;3.25;;;;;;;15.05;51.31;101712.16;7975891;28;20028;-65
2021/08/14 02:58:58;;;;;;;5.82;2.95;;;;;;;15.02;51.12;101708.88;7975905;28;20556;-66
2021/08/14 03:02:48;;;;;;;7.07;4.05;;;;;;;14.98;51.33;101718.84;7975622;28;20033;-65
2021/08/14 03:06:39;;;;;;;4.88;3.05;;;;;;;14.94;51.33;101711.22;7975390;28;20116;-64
2021/08/14 03:10:30;;;;;;;7.32;3.30;;;;;;;14.91;51.34;101714.94;7975493;28;20041;-64
2021/08/14 03:14:20;;;;;;;5.75;2.95;;;;;;;14.88;51.42;101709.84;7974673;28;20502;-64
2021/08/14 03:18:11;;;;;;;5.22;3.03;;;;;;;14.86;51.46;101703.00;7975360;28;20025;-65
2021/08/14 03:22:01;;;;;;;5.45;3.10;;;;;;;14.83;51.53;101711.16;7975514;28;20411;-64
2021/08/14 03:25:52;;;;;;;5.07;3.42;;;;;;;14.80;51.55;101706.91;7974841;28;20098;-64
2021/08/14 03:29:42;;;;;;;3.75;2.97;;;;;;;14.78;51.51;101707.03;7974179;28;20045;-64
2021/08/14 03:33:33;;;;;;;4.75;2.97;;;;;;;14.75;51.39;101704.59;7974841;28;20047;-65
2021/08/14 03:37:24;;;;;;;4.60;3.05;;;;;;;14.73;51.65;101703.00;7974803;28;20532;-64
2021/08/14 03:41:14;;;;;;;3.40;2.72;;;;;;;14.70;51.57;101703.22;7974469;28;20030;-65
2021/08/14 03:45:06;;;;;;;8.73;3.30;;;;;;;14.66;51.67;101702.59;7974822;28;20043;-65
2021/08/14 03:48:56;;;;;;;5.55;2.85;;;;;;;14.64;51.80;101709.78;7975515;28;20033;-65
2021/08/14 03:52:47;;;;;;;4.50;3.00;;;;;;;14.62;51.86;101713.50;7974722;28;20041;-65
2021/08/14 03:56:37;;;;;;;6.75;3.55;;;;;;;14.59;51.80;101714.53;7975386;28;20037;-64
2021/08/14 04:00:28;;;;;;;8.65;3.45;;;;;;;14.56;51.92;101714.78;7975212;28;20056;-65
2021/08/14 04:04:19;;;;;;;6.63;3.05;;;;;;;14.54;52.07;101714.03;7974782;28;20072;-65
2021/08/14 04:08:09;;;;;;;6.07;2.88;;;;;;;14.52;51.86;101717.72;7974960;28;20041;-65
2021/08/14 04:12:00;;;;;;;7.20;3.42;;;;;;;14.50;51.96;101722.28;7974595;28;20030;-65
2021/08/14 04:15:51;;;;;;;6.93;3.00;;;;;;;14.48;52.07;101722.38;7974625;28;20045;-65
2021/08/14 04:19:41;;;;;;;5.85;3.00;;;;;;;14.46;52.12;101728.75;7972680;28;20036;-66
2021/08/14 04:23:34;;;;;;;5.07;2.55;;;;;;;14.42;52.16;101727.22;7973544;28;20059;-65
2021/08/14 04:27:24;;;;;;;6.78;3.47;;;;;;;14.41;52.06;101729.03;7966335;28;20794;-64
2021/08/14 04:31:15;;;;;;;9.63;2.90;;;;;;;14.40;52.00;101731.75;7973994;28;20599;-64
2021/08/14 04:35:08;;;;;;;4.85;2.72;;;;;;;14.36;52.08;101723.19;7971130;28;21262;-64
2021/08/14 04:38:58;;;;;;;6.60;3.22;;;;;;;14.32;51.99;101713.78;7973857;28;20036;-64
2021/08/14 04:42:49;;;;;;;7.85;3.17;;;;;;;14.34;52.28;101723.28;7978192;28;20045;-64
2021/08/14 04:46:40;;;;;;;7.53;3.40;;;;;;;14.32;52.34;101714.63;7979993;28;20037;-64
2021/08/14 04:50:31;;;;;;;9.38;2.55;;;;;;;14.31;52.45;101720.88;7977706;28;20383;-64
2021/08/14 04:54:21;;;;;;;7.80;3.08;;;;;;;14.32;52.47;101714.63;7979190;28;20124;-64
2021/08/14 04:58:13;;;;;;;6.35;3.10;;;;;;;14.31;52.36;101710.28;7979404;28;20723;-64
2021/08/14 05:02:04;;;;;;;6.22;2.80;;;;;;;14.28;52.88;101704.38;7978693;28;20727;-63
2021/08/14 05:05:54;;;;;;;7.00;3.20;;;;;;;14.32;52.59;101704.06;7979178;28;20056;-64
2021/08/14 05:09:45;;;;;;;5.65;3.00;;;;;;;14.37;52.73;101714.31;7979269;28;20036;-63
2021/08/14 05:13:35;;;;;;;8.50;2.83;;;;;;;14.40;52.85;101719.41;7979440;28;20529;-63
2021/08/14 05:17:26;;;;;;;9.13;3.20;;;;;;;14.43;52.87;101705.13;7978893;28;20056;-63
2021/08/14 05:21:17;;;;;;;6.18;3.05;;;;;;;14.47;53.06;101710.13;7979267;28;20037;-64
2021/08/14 05:25:08;;;;;;;5.78;3.22;;;;;;;14.53;53.02;101717.63;7978786;28;20040;-64
2021/08/14 05:28:59;;;;;;;6.40;3.22;;;;;;;14.61;53.14;101722.38;7977626;28;20116;-64
2021/08/14 05:32:49;;;;;;;7.05;3.03;;;;;;;14.61;53.02;101703.88;7978605;28;20037;-64
2021/08/14 05:36:40;;;;;;;10.15;3.10;;;;;;;14.76;53.01;101716.84;7976276;28;20064;-64
2021/08/14 05:40:31;;;;;;;6.90;3.85;;;;;;;14.90;53.00;101718.53;7977136;28;20043;-64
2021/08/14 05:44:22;;;;;;;10.45;3.15;;;;;;;15.00;53.14;101724.84;7977454;28;20033;-63
2021/08/14 05:48:12;;;;;;;5.85;2.83;;;;;;;15.08;53.14;101721.69;7977316;28;20026;-64
2021/08/14 05:52:05;;;;;;;4.50;2.90;;;;;;;15.17;53.17;101715.69;7959462;28;20561;-64
2021/08/14 05:55:55;;;;;;;10.52;3.40;;;;;;;15.47;53.06;101708.22;7977516;28;20044;-64
2021/08/14 05:59:46;;;;;;;9.23;3.28;;;;;;;15.68;52.94;101714.59;7977108;28;20044;-64
2021/08/14 06:03:37;;;;;;;7.10;2.72;;;;;;;15.71;53.09;101713.50;7977246;28;20045;-64
2021/08/14 06:07:27;;;;;;;5.70;2.80;;;;;;;15.83;53.17;101717.88;7977800;28;20451;-63
2021/08/14 06:11:18;;;;;;;7.20;3.10;;;;;;;15.94;53.25;101714.44;7977604;28;20041;-64
2021/08/14 06:15:09;;;;;;;7.60;2.88;;;;;;;16.04;53.24;101704.81;7976489;28;20047;-64
2021/08/14 06:18:59;;;;;;;5.88;2.45;;;;;;;16.61;53.22;101721.59;7977768;28;20032;-63
2021/08/14 06:22:50;;;;;;;8.43;3.45;;;;;;;17.62;53.62;101719.63;7978599;28;20038;-63
2021/08/14 06:26:41;;;;;;;9.60;3.22;;;;;;;18.74;53.61;101717.19;7976528;28;20040;-64
2021/08/14 06:30:32;;;;;;;9.43;3.75;;;;;;;19.86;53.06;101712.41;7976788;28;20040;-64
2021/08/14 06:34:22;;;;;;;6.07;2.72;;;;;;;20.84;52.44;101712.03;7976120;28;20049;-64
2021/08/14 06:38:13;;;;;;;7.63;3.03;;;;;;;21.68;51.52;101716.16;7976577;28;20589;-64
2021/08/14 06:42:04;;;;;;;8.13;3.08;;;;;;;22.27;50.63;101717.31;7977141;28;20041;-64
2021/08/14 06:45:55;;;;;;;11.95;3.17;;;;;;;22.91;49.74;101708.81;7973911;28;20061;-64
2021/08/14 06:49:45;;;;;;;6.93;2.53;;;;;;;23.62;49.45;101703.78;7976302;28;20445;-64
2021/08/14 06:53:36;;;;;;;5.50;3.17;;;;;;;23.80;48.38;101699.13;7976468;28;20041;-64
2021/08/14 06:57:26;;;;;;;6.75;2.90;;;;;;;23.78;47.97;101700.31;7976467;28;20540;-64
2021/08/14 07:01:17;;;;;;;8.43;2.92;;;;;;;23.95;47.86;101693.91;7976160;28;20041;-64
2021/08/14 07:05:08;;;;;;;5.60;2.42;;;;;;;24.02;47.62;101684.19;7976255;28;20452;-64
2021/08/14 07:08:59;;;;;;;7.10;2.60;;;;;;;23.84;47.83;101684.38;7974833;28;20061;-64
2021/08/14 07:12:50;;;;;;;6.93;2.83;;;;;;;23.56;47.69;101680.34;7975826;28;20021;-64
2021/08/14 07:16:41;;;;;;;6.03;2.60;;;;;;;23.24;47.84;101680.31;7973433;28;20044;-64
2021/08/14 07:20:31;;;;;;;7.82;2.30;;;;;;;22.92;47.75;101691.72;7974670;28;20075;-64
2021/08/14 07:24:22;;;;;;;9.02;2.55;;;;;;;22.63;47.54;101694.78;7973840;28;20025;-65
2021/08/14 07:28:12;;;;;;;7.63;2.50;;;;;;;22.37;47.42;101697.44;7975137;28;20042;-65
2021/08/14 07:32:03;;;;;;;5.32;1.90;;;;;;;22.13;47.48;101699.13;7975828;28;20055;-64
2021/08/14 07:35:55;;;;;;;12.30;2.72;;;;;;;21.89;47.33;101695.28;7974695;28;20045;-63
2021/08/14 07:39:46;;;;;;;4.90;1.80;;;;;;;21.70;47.09;101698.13;7975012;28;20037;-64
2021/08/14 07:43:36;;;;;;;9.10;1.98;;;;;;;21.52;47.34;101689.25;7976545;28;20039;-64
2021/08/14 07:47:27;;;;;;;4.85;2.08;;;;;;;21.38;47.58;101692.50;7974392;28;20036;-65
2021/08/14 07:51:18;;;;;;;12.25;2.22;;;;;;;21.29;47.23;101690.72;7972925;28;20400;-63
2021/08/14 07:55:10;;;;;;;3.75;1.20;;;;;;;21.18;47.24;101687.22;7979432;28;20028;-65
2021/08/14 07:59:00;;;;;;;5.95;1.83;;;;;;;21.05;46.89;101680.56;7975010;28;20061;-65
2021/08/14 08:02:52;;;;;;;7.10;2.00;;;;;;;20.94;46.82;101689.63;7980099;28;20041;-65
2021/08/14 08:06:42;;;;;;;6.65;2.05;;;;;;;20.84;46.96;101680.00;7979557;28;20068;-64
2021/08/14 08:10:34;;;;;;;4.68;1.70;;;;;;;20.76;46.80;101686.06;7972005;28;20029;-64
2021/08/14 08:14:25;;;;;;;5.80;1.95;;;;;;;20.78;46.82;101688.59;7966732;28;20474;-64
2021/08/14 08:18:16;;;;;;;6.13;2.20;;;;;;;20.75;46.85;101692.41;7979396;28;20047;-64
2021/08/14 08:22:06;;;;;;;3.97;1.77;;;;;;;20.76;47.14;101694.06;7979693;28;20028;-65
2021/08/14 08:25:57;;;;;;;5.22;2.20;;;;;;;20.77;46.91;101693.09;7980241;28;20120;-64
2021/08/14 08:29:47;;;;;;;3.65;2.10;;;;;;;20.78;46.67;101686.75;7979155;28;20049;-64
2021/08/14 08:33:38;;;;;;;5.78;1.80;;;;;;;20.80;46.45;101687.44;7980201;28;20119;-65
2021/08/14 08:37:28;;;;;;;3.80;1.52;;;;;;;20.83;46.68;101686.31;7977917;28;20048;-64
2021/08/14 08:41:20;;;;;;;3.35;1.70;;;;;;;20.87;46.26;101685.03;7979829;28;20033;-64
2021/08/14 08:45:11;;;;;;;5.53;2.13;;;;;;;20.90;46.00;101682.91;7979373;28;20121;-65
2021/08/14 08:49:02;;;;;;;11.25;2.10;;;;;;;20.94;45.94;101676.28;7979780;28;20433;-64
2021/08/14 08:52:53;;;;;;;6.32;1.50;;;;;;;20.97;45.65;101681.31;7979403;28;20110;-65
2021/08/14 08:56:44;;;;;;;3.00;1.75;;;;;;;20.98;45.45;101691.00;7979581;28;20045;-65
2021/08/14 09:00:34;;;;;;;3.33;1.67;;;;;;;21.00;44.92;101672.19;7979824;28;20045;-66
2021/08/14 09:04:28;;;;;;;4.18;1.50;;;;;;;20.95;44.78;101663.75;7979363;28;20390;-65
2021/08/14 09:08:19;;;;;;;3.58;1.60;;;;;;;21.05;44.61;101675.22;7979755;28;20109;-65
2021/08/14 09:12:11;;;;;;;2.83;1.60;;;;;;;21.07;44.38;101679.44;7979488;28;20056;-65
2021/08/14 09:16:24;;;;;;;3.47;1.60;;;;;;;21.07;44.47;101673.25;7978677;28;20375;-65
2021/08/14 09:20:19;;;;;;;5.18;1.52;;;;;;;21.12;44.53;101674.47;7979653;28;20758;-65
2021/08/14 09:24:29;;;;;;;4.38;1.58;;;;;;;21.16;44.42;101669.69;7978629;28;20060;-64
2021/08/14 09:28:34;;;;;;;5.28;1.60;;;;;;;21.23;44.37;101667.25;7976493;28;20029;-64
2021/08/14 09:32:26;;;;;;;4.20;1.73;;;;;;;21.28;44.25;101670.31;7977242;28;20140;-64
2021/08/14 09:36:20;;;;;;;5.75;1.83;;;;;;;21.33;43.97;101668.88;7978773;28;20037;-64
2021/08/14 09:40:11;;;;;;;7.95;2.60;;;;;;;21.37;44.14;101667.59;7977980;28;20030;-64
2021/08/14 09:44:13;;;;;;;6.22;2.00;;;;;;;21.38;43.77;101661.22;7978681;28;20030;-64
2021/08/14 09:48:18;;;;;;;5.57;1.65;;;;;;;21.45;43.72;101656.97;7978797;28;20444;-64
2021/08/14 09:52:19;;;;;;;3.38;1.60;;;;;;;21.49;43.64;101650.31;7978059;28;20021;-64
2021/08/14 09:56:11;;;;;;;3.88;1.60;;;;;;;21.56;43.51;101661.22;7978329;28;20029;-64
2021/08/14 10:00:02;;;;;;;4.93;1.85;;;;;;;21.61;43.55;101659.78;7978399;28;20029;-65
2021/08/14 10:04:04;;;;;;;7.65;2.28;;;;;;;21.65;43.27;101649.63;7977550;28;20034;-64
2021/08/14 10:07:55;;;;;;;6.03;1.75;;;;;;;21.70;43.19;101655.34;7978147;28;20033;-64
2021/08/14 10:11:47;;;;;;;2.65;1.27;;;;;;;21.74;43.09;101646.00;7977786;28;20148;-64
2021/08/14 10:15:38;;;;;;;2.22;1.40;;;;;;;21.77;43.09;101653.72;7978059;28;20033;-64
2021/08/14 10:19:29;;;;;;;5.30;1.80;;;;;;;21.84;43.04;101640.53;7976268;28;20037;-63
2021/08/14 10:23:25;;;;;;;2.78;1.30;;;;;;;21.83;42.84;101639.75;7974587;28;20103;-64
2021/08/14 10:27:17;;;;;;;5.32;1.70;;;;;;;21.90;42.71;101635.47;7977399;28;20796;-64
2021/08/14 10:31:07;;;;;;;6.93;1.52;;;;;;;21.91;42.44;101629.13;7976776;28;20116;-63
2021/08/14 10:35:20;;;;;;;3.78;1.63;;;;;;;21.98;42.39;101645.38;7976691;28;20109;-64
2021/08/14 10:39:20;;;;;;;3.13;1.45;;;;;;;22.03;42.42;101629.69;7974721;28;20393;-64
2021/08/14 10:43:11;;;;;;;6.45;1.80;;;;;;;22.07;42.49;101623.88;7974583;28;20030;-65
2021/08/14 10:47:02;;;;;;;12.85;2.13;;;;;;;22.09;42.18;101615.66;7972950;28;20057;-64
2021/08/14 10:50:54;;;;;;;121.55;6.97;;;;;;;22.19;42.08;101620.91;7976025;28;20025;-65
2021/08/14 10:54:54;;;;;;;23.20;4.22;;;;;;;22.23;42.26;101622.28;7976502;28;20033;-64
2021/08/14 10:58:45;;;;;;;3.03;1.42;;;;;;;22.29;42.02;101613.63;7976536;28;20120;-65
2021/08/14 11:02:56;;;;;;;9.68;2.15;;;;;;;22.30;42.14;101610.78;7975845;28;20086;-65
2021/08/14 11:06:48;;;;;;;3.05;1.35;;;;;;;22.38;42.02;101613.47;7970352;28;20042;-64
2021/08/14 11:10:41;;;;;;;2.58;1.55;;;;;;;22.45;41.75;101608.34;7975539;28;20040;-64
2021/08/14 11:14:39;;;;;;;2.55;1.30;;;;;;;22.49;41.69;101609.72;7975646;28;20029;-64
2021/08/14 11:18:49;;;;;;;3.00;1.58;;;;;;;22.51;41.67;101607.72;7975964;28;20045;-65
2021/08/14 11:22:42;;;;;;;5.20;2.00;;;;;;;22.58;41.56;101607.91;7976318;28;20083;-64
2021/08/14 11:26:35;;;;;;;3.88;1.58;;;;;;;22.61;41.22;101599.56;7972548;28;20037;-65
2021/08/14 11:30:28;;;;;;;3.85;1.35;;;;;;;22.68;41.25;101597.91;7972413;28;20036;-64
2021/08/14 11:34:21;;;;;;;6.95;1.48;;;;;;;22.71;41.20;101602.91;7984593;28;20098;-64
2021/08/14 11:38:12;;;;;;;4.15;1.70;;;;;;;22.76;41.02;101595.25;7974999;28;20029;-64
2021/08/14 11:42:04;;;;;;;4.88;1.45;;;;;;;22.77;41.21;101600.44;7974402;28;20493;-64
2021/08/14 11:46:04;;;;;;;7.18;1.80;;;;;;;22.82;40.74;101610.66;7974774;28;20029;-69
2021/08/14 11:49:58;;;;;;;20.33;3.03;;;;;;;22.86;40.84;101604.81;7973613;28;20087;-64
2021/08/14 11:54:01;;;;;;;5.50;1.67;;;;;;;22.89;40.77;101596.44;7974475;28;20037;-64
2021/08/14 11:57:52;;;;;;;4.78;1.50;;;;;;;22.92;40.70;101596.13;7974836;28;20040;-65
2021/08/14 12:01:50;;;;;;;2.28;1.35;;;;;;;22.95;40.57;101590.41;7974906;28;20083;-65
2021/08/14 12:05:44;;;;;;;3.88;1.83;;;;;;;23.00;40.67;101580.03;7972808;28;20037;-64
2021/08/14 12:09:36;;;;;;;3.63;1.40;;;;;;;23.03;40.69;101586.09;7974806;28;20049;-65
2021/08/14 12:13:27;;;;;;;4.05;1.80;;;;;;;23.06;40.91;101583.91;7974190;28;20030;-65
2021/08/14 12:17:18;;;;;;;3.63;1.63;;;;;;;23.09;40.34;101580.06;7974368;28;20067;-65
2021/08/14 12:21:10;;;;;;;3.15;1.63;;;;;;;23.10;40.61;101568.38;7974798;28;20374;-64
2021/08/14 12:25:22;;;;;;;3.78;1.65;;;;;;;23.10;40.86;101565.69;7973645;28;20033;-64
2021/08/14 12:29:15;;;;;;;4.32;2.10;;;;;;;23.15;40.42;101561.53;7973546;28;20073;-65
2021/08/14 12:33:25;;;;;;;2.13;1.52;;;;;;;23.16;40.40;101568.53;7974199;28;20037;-65
2021/08/14 12:37:15;;;;;;;2.50;1.42;;;;;;;23.20;40.48;101563.69;7977276;28;20040;-65
2021/08/14 12:41:17;;;;;;;3.85;1.90;;;;;;;23.16;40.19;101559.69;7973897;28;20037;-64
2021/08/14 12:45:19;;;;;;;12.00;2.00;;;;;;;23.20;40.28;101556.47;7974263;28;20030;-65
2021/08/14 12:49:24;;;;;;;4.10;1.92;;;;;;;23.19;40.35;101556.66;7970788;28;20034;-64
2021/08/14 12:53:17;;;;;;;5.20;1.48;;;;;;;23.16;40.72;101548.97;7978515;28;20482;-64
2021/08/14 12:57:09;;;;;;;4.55;1.92;;;;;;;23.16;40.30;101538.25;7985601;28;20132;-64
2021/08/14 13:01:00;;;;;;;4.50;1.73;;;;;;;23.23;40.26;101555.31;7973110;28;20064;-65
2021/08/14 13:04:50;;;;;;;7.45;1.92;;;;;;;23.23;40.06;101558.84;7972867;28;20120;-65
2021/08/14 13:08:41;;;;;;;3.70;1.80;;;;;;;23.21;40.28;101544.75;7965117;28;20029;-64
2021/08/14 13:12:34;;;;;;;5.97;1.95;;;;;;;23.21;40.26;101551.94;7969586;28;20078;-65
2021/08/14 13:16:25;;;;;;;3.47;1.73;;;;;;;23.22;40.06;101548.28;7968758;28;20033;-65
2021/08/14 13:20:17;;;;;;;3.60;2.00;;;;;;;23.21;40.23;101549.28;7969020;28;20063;-64
2021/08/14 13:24:07;;;;;;;7.20;2.05;;;;;;;23.19;40.20;101556.66;7969047;28;20029;-64
2021/08/14 13:27:58;;;;;;;3.97;1.77;;;;;;;23.14;40.07;101545.59;7967424;28;20521;-64
2021/08/14 13:31:49;;;;;;;4.45;1.95;;;;;;;23.16;39.83;101549.78;7967434;28;20044;-64
2021/08/14 13:35:39;;;;;;;3.95;2.35;;;;;;;23.08;40.26;101538.22;7966352;28;20626;-64
2021/08/14 13:39:30;;;;;;;5.95;2.25;;;;;;;23.13;39.66;101552.78;7969094;28;20041;-65
2021/08/14 13:43:21;;;;;;;3.75;2.20;;;;;;;23.10;39.78;101544.25;7968600;28;20048;-65
2021/08/14 13:47:11;;;;;;;3.40;1.75;;;;;;;23.09;39.86;101540.72;7965521;28;20056;-66
2021/08/14 13:51:02;;;;;;;5.25;2.00;;;;;;;23.09;39.71;101543.41;7965896;28;20028;-66
2021/08/14 13:54:52;;;;;;;4.20;2.15;;;;;;;23.09;39.87;101539.88;7968314;28;20494;-65
2021/08/14 13:58:43;;;;;;;6.18;2.03;;;;;;;23.08;39.63;101536.34;7966275;28;20033;-64
2021/08/14 14:02:37;;;;;;;4.35;2.40;;;;;;;23.07;39.72;101529.31;7966420;28;20037;-65
2021/08/14 14:06:29;;;;;;;3.20;2.10;;;;;;;23.09;39.69;101521.09;7963891;28;20030;-64
2021/08/14 14:10:20;;;;;;;4.43;1.88;;;;;;;23.07;39.59;101528.50;7965462;28;20575;-64
2021/08/14 14:14:10;;;;;;;7.38;2.20;;;;;;;23.05;39.62;101525.13;7967297;28;20041;-65
2021/08/14 14:18:01;;;;;;;2.97;2.20;;;;;;;23.07;40.03;101523.97;7966749;28;20037;-64
2021/08/14 14:21:51;;;;;;;4.90;2.22;;;;;;;23.08;39.98;101522.94;7965636;28;20079;-65
2021/08/14 14:25:42;;;;;;;5.88;2.10;;;;;;;23.06;39.72;101513.41;7963442;28;20045;-65
2021/08/14 14:29:34;;;;;;;4.07;2.00;;;;;;;23.09;39.73;101519.28;7964987;28;20038;-64
2021/08/14 14:33:24;;;;;;;5.97;2.53;;;;;;;23.05;39.74;101515.25;7965545;28;20029;-65
2021/08/14 14:37:15;;;;;;;3.08;1.83;;;;;;;23.06;39.72;101516.94;7961820;28;20035;-66
2021/08/14 14:41:05;;;;;;;5.57;2.20;;;;;;;22.99;39.70;101505.22;7963833;28;20057;-65
2021/08/14 14:44:56;;;;;;;3.53;1.85;;;;;;;23.06;39.91;101518.75;7965277;28;20068;-65
2021/08/14 14:48:47;;;;;;;9.82;2.67;;;;;;;23.07;39.99;101515.09;7963988;28;20055;-64
2021/08/14 14:52:37;;;;;;;4.50;2.28;;;;;;;23.06;39.81;101508.06;7963273;28;20714;-65
2021/08/14 14:56:28;;;;;;;4.90;1.77;;;;;;;23.03;40.15;101495.84;7964830;28;20029;-65
2021/08/14 15:00:19;;;;;;;2.40;1.75;;;;;;;23.07;40.13;101501.69;7966227;28;20111;-65
2021/08/14 15:04:09;;;;;;;7.28;2.33;;;;;;;23.06;40.10;101487.44;7964501;28;20055;-65
2021/08/14 15:08:00;;;;;;;3.60;1.70;;;;;;;23.06;40.26;101489.28;7961389;28;20022;-64
2021/08/14 15:11:52;;;;;;;4.07;1.83;;;;;;;23.05;40.07;101488.44;7965227;28;20037;-64
2021/08/14 15:15:43;;;;;;;4.68;2.00;;;;;;;23.05;40.19;101498.31;7963715;28;20120;-64
2021/08/14 15:19:34;;;;;;;8.18;2.28;;;;;;;23.02;39.97;101493.31;7963887;28;20106;-64
2021/08/14 15:23:24;;;;;;;5.00;2.38;;;;;;;23.02;40.03;101493.31;7963794;28;20088;-65
2021/08/14 15:27:15;;;;;;;5.65;2.20;;;;;;;23.02;40.13;101491.47;7962123;28;20641;-65
2021/08/14 15:31:07;;;;;;;4.45;1.85;;;;;;;23.01;39.87;101487.13;7963167;28;20055;-65
2021/08/14 15:34:58;;;;;;;5.80;2.47;;;;;;;23.00;39.80;101490.78;7960428;28;20517;-65
2021/08/14 15:38:49;;;;;;;4.90;2.08;;;;;;;22.97;39.97;101483.94;7959389;28;20030;-65
2021/08/14 15:42:39;;;;;;;5.53;2.20;;;;;;;22.92;40.18;101480.06;7960758;28;20041;-65
2021/08/14 15:46:30;;;;;;;8.82;3.10;;;;;;;22.96;39.98;101487.63;7961424;28;20048;-65
2021/08/14 15:50:21;;;;;;;4.93;1.88;;;;;;;22.96;40.11;101481.41;7961579;28;20060;-65
2021/08/14 15:54:11;;;;;;;16.17;10.13;;;;;;;22.95;40.17;101474.41;7963077;28;20044;-65
2021/08/14 15:58:02;;;;;;;238.73;145.50;;;;;;;22.91;40.28;101463.16;7963547;28;20761;-65
2021/08/14 16:01:53;;;;;;;271.27;180.05;;;;;;;22.94;40.06;101464.69;7961344;28;20045;-65
2021/08/14 16:05:43;;;;;;;136.57;87.25;;;;;;;22.93;40.04;101468.38;7960255;28;20041;-65
2021/08/14 16:09:34;;;;;;;61.35;41.63;;;;;;;22.90;40.01;101474.91;7962115;28;20039;-65
2021/08/14 16:13:27;;;;;;;89.88;69.15;;;;;;;22.88;40.15;101463.50;7963574;28;20037;-65
2021/08/14 16:17:17;;;;;;;114.20;84.07;;;;;;;22.87;39.93;101453.78;7961661;28;20033;-65
2021/08/14 16:21:09;;;;;;;167.50;124.03;;;;;;;22.87;40.11;101459.16;7961908;28;20040;-65
2021/08/14 16:25:00;;;;;;;153.93;105.13;;;;;;;22.86;40.21;101464.69;7962082;28;20040;-65
2021/08/14 16:28:51;;;;;;;182.02;138.05;;;;;;;22.83;40.42;101468.50;7963344;28;20033;-65
2021/08/14 16:32:41;;;;;;;108.63;82.07;;;;;;;22.82;40.25;101464.19;7963721;28;20038;-65
2021/08/14 16:36:32;;;;;;;127.78;100.95;;;;;;;22.81;40.18;101470.53;7962110;28;20047;-65
2021/08/14 16:40:22;;;;;;;100.32;81.35;;;;;;;22.81;40.15;101459.00;7969094;28;20079;-65
2021/08/14 16:44:13;;;;;;;36.83;29.95;;;;;;;22.79;40.21;101458.31;7969537;28;20053;-65
2021/08/14 16:48:04;;;;;;;19.27;13.82;;;;;;;22.78;40.55;101454.81;7969241;28;20508;-65
2021/08/14 16:51:54;;;;;;;14.77;7.43;;;;;;;22.76;40.64;101443.41;7969306;28;20041;-65
2021/08/14 16:55:45;;;;;;;7.18;3.95;;;;;;;22.76;40.37;101454.13;7967700;28;20048;-65
2021/08/14 16:59:36;;;;;;;7.43;2.83;;;;;;;22.71;40.27;101442.22;7965347;28;20039;-65
2021/08/14 17:03:26;;;;;;;14.50;3.03;;;;;;;22.73;40.36;101453.63;7966551;28;20041;-64
2021/08/14 17:07:18;;;;;;;35.65;4.90;;;;;;;22.71;40.04;101452.94;7961630;28;20045;-65
2021/08/14 17:11:09;;;;;;;3.42;1.92;;;;;;;22.68;40.53;101438.06;7964982;28;20056;-65
2021/08/14 17:14:59;;;;;;;8.45;2.35;;;;;;;22.65;40.32;101438.41;7967114;28;20042;-65
2021/08/14 17:18:50;;;;;;;5.13;2.72;;;;;;;22.63;40.42;101439.56;7968028;28;20044;-65
2021/08/14 17:22:40;;;;;;;11.00;2.42;;;;;;;22.59;40.37;101430.19;7966333;28;20040;-65
2021/08/14 17:26:31;;;;;;;9.23;2.45;;;;;;;22.51;40.17;101428.34;7966691;28;20079;-65
2021/08/14 17:30:22;;;;;;;5.05;2.70;;;;;;;22.51;40.42;101439.03;7966603;28;20030;-65
2021/08/14 17:34:13;;;;;;;6.53;2.50;;;;;;;22.47;40.40;101435.03;7964669;28;20096;-65
2021/08/14 17:38:04;;;;;;;5.65;2.08;;;;;;;22.43;40.37;101434.50;7963809;28;20025;-65
2021/08/14 17:41:56;;;;;;;6.10;2.92;;;;;;;22.41;40.57;101439.19;7965448;28;20434;-64
2021/08/14 17:45:47;;;;;;;4.90;2.33;;;;;;;22.39;40.59;101435.81;7964838;28;20302;-64
2021/08/14 17:49:38;;;;;;;5.38;2.28;;;;;;;22.36;40.49;101436.16;7965454;28;20056;-64
2021/08/14 17:53:28;;;;;;;5.53;2.42;;;;;;;22.33;40.72;101431.13;7964932;28;20034;-65
2021/08/14 17:57:19;;;;;;;5.72;2.63;;;;;;;22.30;40.71;101428.78;7965254;28;20520;-64